sensor_id;sensor_type;location;lat;lon;timestamp;P1;durP1;ratioP1;P2;durP2;ratioP2
8297;SDS011;4187;42.778;23.242;2024-01-06T00:00:16;37.17;;;24.60;;
8297;SDS011;4187;42.778;23.242;2024-01-06T00:02:43;47.83;;;29.57;;
8297;SDS011;4187;42.778;23.242;2024-01-06T00:05:09;40.80;;;27.60;;
8297;SDS011;4187;42.778;23.242;2024-01-06T00:07:36;45.37;;;27.70;;
8297;SDS011;4187;42.778;23.242;2024-01-06T00:10:03;49.43;;;30.70;;
8297;SDS011;4187;42.778;23.242;2024-01-06T00:12:30;48.87;;;29.93;;
8297;SDS011;4187;42.778;23.242;2024-01-06T00:14:57;47.40;;;30.03;;
8297;SDS011;4187;42.778;23.242;2024-01-06T00:17:25;43.87;;;29.43;;
8297;SDS011;4187;42.778;23.242;2024-01-06T00:19:52;42.83;;;27.10;;
8297;SDS011;4187;42.778;23.242;2024-01-06T00:22:19;32.63;;;22.23;;
8297;SDS011;4187;42.778;23.242;2024-01-06T00:24:46;33.97;;;23.17;;
8297;SDS011;4187;42.778;23.242;2024-01-06T00:27:13;35.03;;;23.77;;
8297;SDS011;4187;42.778;23.242;2024-01-06T00:29:41;39.07;;;27.60;;
8297;SDS011;4187;42.778;23.242;2024-01-06T00:32:08;35.53;;;24.30;;
8297;SDS011;4187;42.778;23.242;2024-01-06T00:34:36;43.83;;;28.60;;
8297;SDS011;4187;42.778;23.242;2024-01-06T00:37:03;42.33;;;26.47;;
8297;SDS011;4187;42.778;23.242;2024-01-06T00:39:30;54.43;;;32.93;;
8297;SDS011;4187;42.778;23.242;2024-01-06T00:41:56;37.30;;;23.60;;
8297;SDS011;4187;42.778;23.242;2024-01-06T00:44:23;31.03;;;22.27;;
8297;SDS011;4187;42.778;23.242;2024-01-06T00:46:50;32.00;;;21.33;;
8297;SDS011;4187;42.778;23.242;2024-01-06T00:49:17;32.03;;;21.73;;
8297;SDS011;4187;42.778;23.242;2024-01-06T00:51:45;28.83;;;19.70;;
8297;SDS011;4187;42.778;23.242;2024-01-06T00:54:12;29.90;;;20.80;;
8297;SDS011;4187;42.778;23.242;2024-01-06T00:56:38;26.87;;;19.57;;
8297;SDS011;4187;42.778;23.242;2024-01-06T00:59:07;25.93;;;19.03;;
8297;SDS011;4187;42.778;23.242;2024-01-06T01:01:33;47.93;;;28.13;;
8297;SDS011;4187;42.778;23.242;2024-01-06T01:04:00;45.23;;;26.17;;
8297;SDS011;4187;42.778;23.242;2024-01-06T01:06:27;41.80;;;26.20;;
8297;SDS011;4187;42.778;23.242;2024-01-06T01:08:56;35.53;;;23.40;;
8297;SDS011;4187;42.778;23.242;2024-01-06T01:11:22;36.77;;;23.27;;
8297;SDS011;4187;42.778;23.242;2024-01-06T01:13:51;46.57;;;30.60;;
8297;SDS011;4187;42.778;23.242;2024-01-06T01:16:18;51.77;;;30.80;;
8297;SDS011;4187;42.778;23.242;2024-01-06T01:18:45;40.97;;;28.50;;
8297;SDS011;4187;42.778;23.242;2024-01-06T01:21:12;44.33;;;27.60;;
8297;SDS011;4187;42.778;23.242;2024-01-06T01:23:38;45.20;;;25.03;;
8297;SDS011;4187;42.778;23.242;2024-01-06T01:26:06;36.20;;;24.50;;
8297;SDS011;4187;42.778;23.242;2024-01-06T01:28:33;42.10;;;28.10;;
8297;SDS011;4187;42.778;23.242;2024-01-06T01:31:01;41.53;;;26.97;;
8297;SDS011;4187;42.778;23.242;2024-01-06T01:33:27;38.80;;;25.50;;
8297;SDS011;4187;42.778;23.242;2024-01-06T01:35:54;39.17;;;26.13;;
8297;SDS011;4187;42.778;23.242;2024-01-06T01:38:21;37.93;;;25.33;;
8297;SDS011;4187;42.778;23.242;2024-01-06T01:40:48;39.63;;;26.77;;
8297;SDS011;4187;42.778;23.242;2024-01-06T01:43:19;38.27;;;24.87;;
8297;SDS011;4187;42.778;23.242;2024-01-06T01:45:48;44.00;;;29.07;;
8297;SDS011;4187;42.778;23.242;2024-01-06T01:48:16;38.47;;;25.67;;
8297;SDS011;4187;42.778;23.242;2024-01-06T01:50:44;34.03;;;23.83;;
8297;SDS011;4187;42.778;23.242;2024-01-06T01:53:11;35.47;;;23.07;;
8297;SDS011;4187;42.778;23.242;2024-01-06T01:55:39;37.10;;;25.10;;
8297;SDS011;4187;42.778;23.242;2024-01-06T01:58:06;33.83;;;24.60;;
8297;SDS011;4187;42.778;23.242;2024-01-06T02:00:35;32.67;;;25.37;;
8297;SDS011;4187;42.778;23.242;2024-01-06T02:03:03;59.40;;;34.63;;
8297;SDS011;4187;42.778;23.242;2024-01-06T02:05:31;35.17;;;23.83;;
8297;SDS011;4187;42.778;23.242;2024-01-06T02:07:58;37.27;;;25.00;;
8297;SDS011;4187;42.778;23.242;2024-01-06T02:10:25;30.90;;;23.13;;
8297;SDS011;4187;42.778;23.242;2024-01-06T02:15:23;37.00;;;23.43;;
8297;SDS011;4187;42.778;23.242;2024-01-06T02:17:51;40.40;;;25.47;;
8297;SDS011;4187;42.778;23.242;2024-01-06T02:20:18;34.97;;;22.50;;
8297;SDS011;4187;42.778;23.242;2024-01-06T02:22:50;28.57;;;18.23;;
8297;SDS011;4187;42.778;23.242;2024-01-06T02:25:16;14.80;;;10.50;;
8297;SDS011;4187;42.778;23.242;2024-01-06T02:27:44;16.10;;;11.07;;
8297;SDS011;4187;42.778;23.242;2024-01-06T02:30:11;20.73;;;12.87;;
8297;SDS011;4187;42.778;23.242;2024-01-06T02:32:38;25.13;;;15.17;;
8297;SDS011;4187;42.778;23.242;2024-01-06T02:35:05;21.67;;;15.87;;
8297;SDS011;4187;42.778;23.242;2024-01-06T02:37:32;21.63;;;14.27;;
8297;SDS011;4187;42.778;23.242;2024-01-06T02:40:00;17.87;;;12.90;;
8297;SDS011;4187;42.778;23.242;2024-01-06T02:42:27;22.80;;;15.73;;
8297;SDS011;4187;42.778;23.242;2024-01-06T02:44:54;22.03;;;15.97;;
8297;SDS011;4187;42.778;23.242;2024-01-06T02:47:20;26.20;;;19.03;;
8297;SDS011;4187;42.778;23.242;2024-01-06T02:49:47;30.07;;;18.93;;
8297;SDS011;4187;42.778;23.242;2024-01-06T02:52:14;18.53;;;11.83;;
8297;SDS011;4187;42.778;23.242;2024-01-06T02:54:41;30.07;;;20.83;;
8297;SDS011;4187;42.778;23.242;2024-01-06T02:57:09;23.80;;;17.00;;
8297;SDS011;4187;42.778;23.242;2024-01-06T02:59:38;24.50;;;18.10;;
8297;SDS011;4187;42.778;23.242;2024-01-06T03:02:05;27.83;;;18.13;;
8297;SDS011;4187;42.778;23.242;2024-01-06T03:04:32;26.57;;;18.00;;
8297;SDS011;4187;42.778;23.242;2024-01-06T03:06:59;24.73;;;18.30;;
8297;SDS011;4187;42.778;23.242;2024-01-06T03:09:25;27.40;;;18.73;;
8297;SDS011;4187;42.778;23.242;2024-01-06T03:11:52;26.23;;;18.03;;
8297;SDS011;4187;42.778;23.242;2024-01-06T03:14:20;23.17;;;16.60;;
8297;SDS011;4187;42.778;23.242;2024-01-06T03:16:47;24.87;;;15.47;;
8297;SDS011;4187;42.778;23.242;2024-01-06T03:19:14;26.77;;;17.27;;
8297;SDS011;4187;42.778;23.242;2024-01-06T03:21:41;22.07;;;14.53;;
8297;SDS011;4187;42.778;23.242;2024-01-06T03:24:07;19.17;;;14.27;;
8297;SDS011;4187;42.778;23.242;2024-01-06T03:26:35;20.90;;;14.43;;
8297;SDS011;4187;42.778;23.242;2024-01-06T03:29:01;27.10;;;15.03;;
8297;SDS011;4187;42.778;23.242;2024-01-06T03:31:30;20.37;;;14.87;;
8297;SDS011;4187;42.778;23.242;2024-01-06T03:33:57;23.63;;;15.67;;
8297;SDS011;4187;42.778;23.242;2024-01-06T03:36:23;23.90;;;15.13;;
8297;SDS011;4187;42.778;23.242;2024-01-06T03:38:50;27.97;;;17.97;;
8297;SDS011;4187;42.778;23.242;2024-01-06T03:41:17;22.33;;;16.67;;
8297;SDS011;4187;42.778;23.242;2024-01-06T03:43:44;23.40;;;16.00;;
8297;SDS011;4187;42.778;23.242;2024-01-06T03:46:11;22.13;;;16.30;;
8297;SDS011;4187;42.778;23.242;2024-01-06T03:48:39;22.73;;;15.93;;
8297;SDS011;4187;42.778;23.242;2024-01-06T03:51:07;22.40;;;15.80;;
8297;SDS011;4187;42.778;23.242;2024-01-06T03:53:34;24.60;;;16.40;;
8297;SDS011;4187;42.778;23.242;2024-01-06T03:56:00;26.07;;;16.63;;
8297;SDS011;4187;42.778;23.242;2024-01-06T03:58:28;21.17;;;14.63;;
8297;SDS011;4187;42.778;23.242;2024-01-06T04:00:54;28.63;;;20.03;;
8297;SDS011;4187;42.778;23.242;2024-01-06T04:03:21;29.53;;;18.60;;
8297;SDS011;4187;42.778;23.242;2024-01-06T04:05:49;27.57;;;17.50;;
8297;SDS011;4187;42.778;23.242;2024-01-06T04:08:16;24.20;;;17.17;;
8297;SDS011;4187;42.778;23.242;2024-01-06T04:10:43;19.47;;;13.67;;
8297;SDS011;4187;42.778;23.242;2024-01-06T04:13:10;30.23;;;18.90;;
8297;SDS011;4187;42.778;23.242;2024-01-06T04:15:37;23.30;;;16.70;;
8297;SDS011;4187;42.778;23.242;2024-01-06T04:18:05;21.10;;;15.17;;
8297;SDS011;4187;42.778;23.242;2024-01-06T04:20:32;21.87;;;15.53;;
8297;SDS011;4187;42.778;23.242;2024-01-06T04:23:00;22.87;;;16.03;;
8297;SDS011;4187;42.778;23.242;2024-01-06T04:25:27;31.07;;;20.70;;
8297;SDS011;4187;42.778;23.242;2024-01-06T04:27:54;28.50;;;17.63;;
8297;SDS011;4187;42.778;23.242;2024-01-06T04:30:20;23.60;;;15.80;;
8297;SDS011;4187;42.778;23.242;2024-01-06T04:32:47;21.53;;;16.10;;
8297;SDS011;4187;42.778;23.242;2024-01-06T04:35:14;30.27;;;18.97;;
8297;SDS011;4187;42.778;23.242;2024-01-06T04:37:41;31.97;;;20.60;;
8297;SDS011;4187;42.778;23.242;2024-01-06T04:40:10;30.03;;;20.20;;
8297;SDS011;4187;42.778;23.242;2024-01-06T04:42:37;32.73;;;20.90;;
8297;SDS011;4187;42.778;23.242;2024-01-06T04:45:05;35.07;;;23.07;;
8297;SDS011;4187;42.778;23.242;2024-01-06T04:47:33;34.37;;;22.00;;
8297;SDS011;4187;42.778;23.242;2024-01-06T04:50:00;37.07;;;22.50;;
8297;SDS011;4187;42.778;23.242;2024-01-06T04:52:26;33.37;;;20.47;;
8297;SDS011;4187;42.778;23.242;2024-01-06T04:54:55;29.03;;;19.53;;
8297;SDS011;4187;42.778;23.242;2024-01-06T04:57:23;30.63;;;19.00;;
8297;SDS011;4187;42.778;23.242;2024-01-06T04:59:49;30.73;;;19.07;;
8297;SDS011;4187;42.778;23.242;2024-01-06T05:02:16;27.70;;;18.33;;
8297;SDS011;4187;42.778;23.242;2024-01-06T05:04:43;25.47;;;19.03;;
8297;SDS011;4187;42.778;23.242;2024-01-06T05:07:10;22.33;;;15.57;;
8297;SDS011;4187;42.778;23.242;2024-01-06T05:09:37;26.93;;;18.23;;
8297;SDS011;4187;42.778;23.242;2024-01-06T05:12:04;22.63;;;15.70;;
8297;SDS011;4187;42.778;23.242;2024-01-06T05:14:32;29.97;;;20.13;;
8297;SDS011;4187;42.778;23.242;2024-01-06T05:16:59;46.00;;;30.20;;
8297;SDS011;4187;42.778;23.242;2024-01-06T05:19:26;33.13;;;21.30;;
8297;SDS011;4187;42.778;23.242;2024-01-06T05:21:53;28.00;;;18.83;;
8297;SDS011;4187;42.778;23.242;2024-01-06T05:24:20;29.80;;;20.10;;
8297;SDS011;4187;42.778;23.242;2024-01-06T05:26:46;34.07;;;19.70;;
8297;SDS011;4187;42.778;23.242;2024-01-06T05:29:13;33.30;;;23.63;;
8297;SDS011;4187;42.778;23.242;2024-01-06T05:31:41;36.87;;;25.27;;
8297;SDS011;4187;42.778;23.242;2024-01-06T05:34:08;35.23;;;24.37;;
8297;SDS011;4187;42.778;23.242;2024-01-06T05:36:35;41.43;;;27.57;;
8297;SDS011;4187;42.778;23.242;2024-01-06T05:39:02;39.30;;;24.77;;
8297;SDS011;4187;42.778;23.242;2024-01-06T05:41:29;37.20;;;23.70;;
8297;SDS011;4187;42.778;23.242;2024-01-06T05:43:56;34.10;;;25.50;;
8297;SDS011;4187;42.778;23.242;2024-01-06T05:46:23;36.33;;;24.97;;
8297;SDS011;4187;42.778;23.242;2024-01-06T05:48:52;36.40;;;25.47;;
8297;SDS011;4187;42.778;23.242;2024-01-06T05:51:21;40.40;;;27.23;;
8297;SDS011;4187;42.778;23.242;2024-01-06T05:53:48;40.80;;;25.53;;
8297;SDS011;4187;42.778;23.242;2024-01-06T05:56:21;35.47;;;25.40;;
8297;SDS011;4187;42.778;23.242;2024-01-06T05:58:49;35.43;;;25.47;;
8297;SDS011;4187;42.778;23.242;2024-01-06T06:01:16;37.40;;;25.67;;
8297;SDS011;4187;42.778;23.242;2024-01-06T06:03:42;40.57;;;26.13;;
8297;SDS011;4187;42.778;23.242;2024-01-06T06:06:11;36.87;;;27.37;;
8297;SDS011;4187;42.778;23.242;2024-01-06T06:08:37;37.27;;;26.07;;
8297;SDS011;4187;42.778;23.242;2024-01-06T06:11:05;33.83;;;24.80;;
8297;SDS011;4187;42.778;23.242;2024-01-06T06:13:36;33.77;;;24.73;;
8297;SDS011;4187;42.778;23.242;2024-01-06T06:16:03;31.17;;;24.10;;
8297;SDS011;4187;42.778;23.242;2024-01-06T06:18:30;37.70;;;26.17;;
8297;SDS011;4187;42.778;23.242;2024-01-06T06:20:58;35.27;;;25.93;;
8297;SDS011;4187;42.778;23.242;2024-01-06T06:23:26;39.33;;;26.83;;
8297;SDS011;4187;42.778;23.242;2024-01-06T06:25:53;52.83;;;34.83;;
8297;SDS011;4187;42.778;23.242;2024-01-06T06:28:20;42.17;;;29.30;;
8297;SDS011;4187;42.778;23.242;2024-01-06T06:30:47;52.43;;;33.40;;
8297;SDS011;4187;42.778;23.242;2024-01-06T06:33:14;56.23;;;34.33;;
8297;SDS011;4187;42.778;23.242;2024-01-06T06:35:42;53.30;;;30.63;;
8297;SDS011;4187;42.778;23.242;2024-01-06T06:38:11;41.83;;;25.73;;
8297;SDS011;4187;42.778;23.242;2024-01-06T06:40:39;56.13;;;42.07;;
8297;SDS011;4187;42.778;23.242;2024-01-06T06:43:06;66.57;;;49.90;;
8297;SDS011;4187;42.778;23.242;2024-01-06T06:45:33;41.03;;;27.67;;
8297;SDS011;4187;42.778;23.242;2024-01-06T06:48:00;44.17;;;28.40;;
8297;SDS011;4187;42.778;23.242;2024-01-06T06:50:27;33.50;;;22.10;;
8297;SDS011;4187;42.778;23.242;2024-01-06T06:52:54;31.07;;;22.27;;
8297;SDS011;4187;42.778;23.242;2024-01-06T06:55:20;32.33;;;21.83;;
8297;SDS011;4187;42.778;23.242;2024-01-06T06:57:49;29.97;;;21.90;;
8297;SDS011;4187;42.778;23.242;2024-01-06T07:00:16;29.73;;;22.43;;
8297;SDS011;4187;42.778;23.242;2024-01-06T07:02:43;31.70;;;21.67;;
8297;SDS011;4187;42.778;23.242;2024-01-06T07:05:10;31.67;;;21.73;;
8297;SDS011;4187;42.778;23.242;2024-01-06T07:07:36;29.00;;;20.83;;
8297;SDS011;4187;42.778;23.242;2024-01-06T07:10:04;38.17;;;24.33;;
8297;SDS011;4187;42.778;23.242;2024-01-06T07:12:32;31.80;;;19.40;;
8297;SDS011;4187;42.778;23.242;2024-01-06T07:15:00;43.33;;;26.80;;
8297;SDS011;4187;42.778;23.242;2024-01-06T07:17:27;39.93;;;25.80;;
8297;SDS011;4187;42.778;23.242;2024-01-06T07:19:54;33.43;;;23.33;;
8297;SDS011;4187;42.778;23.242;2024-01-06T07:22:20;36.33;;;23.53;;
8297;SDS011;4187;42.778;23.242;2024-01-06T07:24:47;57.60;;;34.57;;
8297;SDS011;4187;42.778;23.242;2024-01-06T07:27:14;42.27;;;26.47;;
8297;SDS011;4187;42.778;23.242;2024-01-06T07:29:41;31.23;;;22.77;;
8297;SDS011;4187;42.778;23.242;2024-01-06T07:32:09;43.97;;;25.93;;
8297;SDS011;4187;42.778;23.242;2024-01-06T07:34:36;26.07;;;18.97;;
8297;SDS011;4187;42.778;23.242;2024-01-06T07:37:03;25.53;;;19.00;;
8297;SDS011;4187;42.778;23.242;2024-01-06T07:39:30;37.70;;;24.73;;
8297;SDS011;4187;42.778;23.242;2024-01-06T07:41:57;36.30;;;23.90;;
8297;SDS011;4187;42.778;23.242;2024-01-06T07:44:24;40.50;;;26.73;;
8297;SDS011;4187;42.778;23.242;2024-01-06T07:46:51;48.60;;;25.67;;
8297;SDS011;4187;42.778;23.242;2024-01-06T07:49:19;26.37;;;18.80;;
8297;SDS011;4187;42.778;23.242;2024-01-06T07:51:46;26.83;;;20.27;;
8297;SDS011;4187;42.778;23.242;2024-01-06T07:54:13;25.30;;;19.77;;
8297;SDS011;4187;42.778;23.242;2024-01-06T07:56:39;32.17;;;21.93;;
8297;SDS011;4187;42.778;23.242;2024-01-06T07:59:08;65.47;;;37.20;;
8297;SDS011;4187;42.778;23.242;2024-01-06T08:01:35;51.00;;;31.07;;
8297;SDS011;4187;42.778;23.242;2024-01-06T08:04:02;38.13;;;25.07;;
8297;SDS011;4187;42.778;23.242;2024-01-06T08:06:31;34.07;;;24.93;;
8297;SDS011;4187;42.778;23.242;2024-01-06T08:08:58;27.73;;;18.60;;
8297;SDS011;4187;42.778;23.242;2024-01-06T08:11:24;31.43;;;24.53;;
8297;SDS011;4187;42.778;23.242;2024-01-06T08:13:51;33.93;;;23.83;;
8297;SDS011;4187;42.778;23.242;2024-01-06T08:16:18;24.40;;;18.17;;
8297;SDS011;4187;42.778;23.242;2024-01-06T08:18:45;26.25;;;18.90;;
8297;SDS011;4187;42.778;23.242;2024-01-06T08:21:12;25.77;;;19.57;;
8297;SDS011;4187;42.778;23.242;2024-01-06T08:23:40;29.50;;;22.13;;
8297;SDS011;4187;42.778;23.242;2024-01-06T08:26:07;31.47;;;23.10;;
8297;SDS011;4187;42.778;23.242;2024-01-06T08:28:34;37.00;;;25.30;;
8297;SDS011;4187;42.778;23.242;2024-01-06T08:31:02;41.57;;;29.47;;
8297;SDS011;4187;42.778;23.242;2024-01-06T08:33:29;38.33;;;28.33;;
8297;SDS011;4187;42.778;23.242;2024-01-06T08:35:56;40.93;;;29.33;;
8297;SDS011;4187;42.778;23.242;2024-01-06T08:38:22;36.30;;;25.80;;
8297;SDS011;4187;42.778;23.242;2024-01-06T08:40:51;43.00;;;27.07;;
8297;SDS011;4187;42.778;23.242;2024-01-06T08:43:18;28.20;;;21.43;;
8297;SDS011;4187;42.778;23.242;2024-01-06T08:45:45;21.35;;;15.93;;
8297;SDS011;4187;42.778;23.242;2024-01-06T08:48:13;30.45;;;19.45;;
8297;SDS011;4187;42.778;23.242;2024-01-06T08:50:40;24.90;;;19.80;;
8297;SDS011;4187;42.778;23.242;2024-01-06T08:53:07;26.42;;;17.85;;
8297;SDS011;4187;42.778;23.242;2024-01-06T08:55:33;20.90;;;16.63;;
8297;SDS011;4187;42.778;23.242;2024-01-06T08:58:02;20.83;;;14.80;;
8297;SDS011;4187;42.778;23.242;2024-01-06T09:00:28;18.67;;;14.13;;
8297;SDS011;4187;42.778;23.242;2024-01-06T09:02:55;16.67;;;12.02;;
8297;SDS011;4187;42.778;23.242;2024-01-06T09:05:22;16.95;;;12.88;;
8297;SDS011;4187;42.778;23.242;2024-01-06T09:07:49;15.82;;;11.63;;
8297;SDS011;4187;42.778;23.242;2024-01-06T09:10:16;14.18;;;11.63;;
8297;SDS011;4187;42.778;23.242;2024-01-06T09:12:43;14.05;;;9.48;;
8297;SDS011;4187;42.778;23.242;2024-01-06T09:15:11;14.02;;;9.50;;
8297;SDS011;4187;42.778;23.242;2024-01-06T09:17:38;16.48;;;11.32;;
8297;SDS011;4187;42.778;23.242;2024-01-06T09:20:05;16.42;;;10.48;;
8297;SDS011;4187;42.778;23.242;2024-01-06T09:22:33;16.52;;;9.98;;
8297;SDS011;4187;42.778;23.242;2024-01-06T09:24:59;13.05;;;9.48;;
8297;SDS011;4187;42.778;23.242;2024-01-06T09:27:26;14.88;;;9.70;;
8297;SDS011;4187;42.778;23.242;2024-01-06T09:29:53;13.50;;;9.13;;
8297;SDS011;4187;42.778;23.242;2024-01-06T09:32:21;15.43;;;11.93;;
8297;SDS011;4187;42.778;23.242;2024-01-06T09:34:49;19.25;;;12.40;;
8297;SDS011;4187;42.778;23.242;2024-01-06T09:37:15;12.80;;;9.55;;
8297;SDS011;4187;42.778;23.242;2024-01-06T09:39:42;13.23;;;10.18;;
8297;SDS011;4187;42.778;23.242;2024-01-06T09:42:09;16.75;;;11.75;;
8297;SDS011;4187;42.778;23.242;2024-01-06T09:44:36;18.63;;;13.07;;
8297;SDS011;4187;42.778;23.242;2024-01-06T09:47:03;19.70;;;12.27;;
8297;SDS011;4187;42.778;23.242;2024-01-06T09:49:33;17.45;;;13.52;;
8297;SDS011;4187;42.778;23.242;2024-01-06T09:52:04;19.38;;;13.77;;
8297;SDS011;4187;42.778;23.242;2024-01-06T09:54:41;19.85;;;14.57;;
8297;SDS011;4187;42.778;23.242;2024-01-06T09:57:12;18.90;;;14.40;;
8297;SDS011;4187;42.778;23.242;2024-01-06T09:59:39;19.52;;;13.52;;
8297;SDS011;4187;42.778;23.242;2024-01-06T10:02:09;21.48;;;16.95;;
8297;SDS011;4187;42.778;23.242;2024-01-06T10:04:40;25.10;;;17.27;;
8297;SDS011;4187;42.778;23.242;2024-01-06T10:07:07;26.80;;;16.63;;
8297;SDS011;4187;42.778;23.242;2024-01-06T10:09:37;16.38;;;12.57;;
8297;SDS011;4187;42.778;23.242;2024-01-06T10:12:04;27.33;;;16.38;;
8297;SDS011;4187;42.778;23.242;2024-01-06T10:14:31;17.90;;;13.85;;
8297;SDS011;4187;42.778;23.242;2024-01-06T10:16:58;18.02;;;14.13;;
8297;SDS011;4187;42.778;23.242;2024-01-06T10:19:25;16.58;;;12.05;;
8297;SDS011;4187;42.778;23.242;2024-01-06T10:21:53;13.50;;;11.73;;
8297;SDS011;4187;42.778;23.242;2024-01-06T10:24:21;16.75;;;10.55;;
8297;SDS011;4187;42.778;23.242;2024-01-06T10:26:48;12.13;;;9.30;;
8297;SDS011;4187;42.778;23.242;2024-01-06T10:29:15;15.35;;;10.60;;
8297;SDS011;4187;42.778;23.242;2024-01-06T10:31:43;13.82;;;11.52;;
8297;SDS011;4187;42.778;23.242;2024-01-06T10:34:10;15.02;;;12.90;;
8297;SDS011;4187;42.778;23.242;2024-01-06T10:36:37;18.25;;;13.02;;
8297;SDS011;4187;42.778;23.242;2024-01-06T10:39:05;19.00;;;15.20;;
8297;SDS011;4187;42.778;23.242;2024-01-06T10:41:34;25.02;;;18.02;;
8297;SDS011;4187;42.778;23.242;2024-01-06T10:44:03;27.15;;;20.50;;
8297;SDS011;4187;42.778;23.242;2024-01-06T10:46:32;23.63;;;19.38;;
8297;SDS011;4187;42.778;23.242;2024-01-06T10:49:00;27.30;;;19.33;;
8297;SDS011;4187;42.778;23.242;2024-01-06T10:51:29;18.67;;;16.27;;
8297;SDS011;4187;42.778;23.242;2024-01-06T10:53:58;17.40;;;13.75;;
8297;SDS011;4187;42.778;23.242;2024-01-06T10:56:30;16.05;;;12.50;;
8297;SDS011;4187;42.778;23.242;2024-01-06T10:59:02;16.73;;;13.25;;
8297;SDS011;4187;42.778;23.242;2024-01-06T11:01:30;21.73;;;13.45;;
8297;SDS011;4187;42.778;23.242;2024-01-06T11:03:58;16.17;;;12.25;;
8297;SDS011;4187;42.778;23.242;2024-01-06T11:06:26;17.30;;;13.60;;
8297;SDS011;4187;42.778;23.242;2024-01-06T11:08:57;17.88;;;12.32;;
8297;SDS011;4187;42.778;23.242;2024-01-06T11:11:31;19.88;;;13.23;;
8297;SDS011;4187;42.778;23.242;2024-01-06T11:16:43;15.35;;;11.90;;
8297;SDS011;4187;42.778;23.242;2024-01-06T11:22:21;18.23;;;14.45;;
8297;SDS011;4187;42.778;23.242;2024-01-06T11:24:50;20.55;;;12.55;;
8297;SDS011;4187;42.778;23.242;2024-01-06T11:27:20;24.50;;;12.52;;
8297;SDS011;4187;42.778;23.242;2024-01-06T11:29:48;22.45;;;14.45;;
8297;SDS011;4187;42.778;23.242;2024-01-06T11:32:20;23.05;;;15.98;;
8297;SDS011;4187;42.778;23.242;2024-01-06T11:34:53;17.13;;;12.43;;
8297;SDS011;4187;42.778;23.242;2024-01-06T11:37:24;12.05;;;9.43;;
8297;SDS011;4187;42.778;23.242;2024-01-06T11:40:01;16.02;;;9.70;;
8297;SDS011;4187;42.778;23.242;2024-01-06T11:42:33;14.18;;;10.38;;
8297;SDS011;4187;42.778;23.242;2024-01-06T11:45:03;11.02;;;8.55;;
8297;SDS011;4187;42.778;23.242;2024-01-06T11:47:31;6.78;;;5.68;;
8297;SDS011;4187;42.778;23.242;2024-01-06T11:49:59;11.45;;;6.55;;
8297;SDS011;4187;42.778;23.242;2024-01-06T11:52:29;9.63;;;5.18;;
8297;SDS011;4187;42.778;23.242;2024-01-06T11:54:56;4.40;;;4.00;;
8297;SDS011;4187;42.778;23.242;2024-01-06T11:57:25;10.30;;;5.80;;
8297;SDS011;4187;42.778;23.242;2024-01-06T11:59:54;10.35;;;6.03;;
8297;SDS011;4187;42.778;23.242;2024-01-06T12:02:21;13.65;;;9.10;;
8297;SDS011;4187;42.778;23.242;2024-01-06T12:04:49;14.38;;;8.10;;
8297;SDS011;4187;42.778;23.242;2024-01-06T12:07:17;14.25;;;9.07;;
8297;SDS011;4187;42.778;23.242;2024-01-06T12:09:45;15.68;;;9.15;;
8297;SDS011;4187;42.778;23.242;2024-01-06T12:12:14;14.27;;;8.68;;
8297;SDS011;4187;42.778;23.242;2024-01-06T12:14:41;26.00;;;17.08;;
8297;SDS011;4187;42.778;23.242;2024-01-06T12:17:10;19.40;;;13.45;;
8297;SDS011;4187;42.778;23.242;2024-01-06T12:19:38;10.55;;;7.30;;
8297;SDS011;4187;42.778;23.242;2024-01-06T12:22:06;12.52;;;8.45;;
8297;SDS011;4187;42.778;23.242;2024-01-06T12:24:34;11.30;;;7.22;;
8297;SDS011;4187;42.778;23.242;2024-01-06T12:27:01;10.13;;;7.03;;
8297;SDS011;4187;42.778;23.242;2024-01-06T12:29:28;15.80;;;8.52;;
8297;SDS011;4187;42.778;23.242;2024-01-06T12:31:58;12.13;;;9.02;;
8297;SDS011;4187;42.778;23.242;2024-01-06T12:34:27;12.23;;;7.20;;
8297;SDS011;4187;42.778;23.242;2024-01-06T12:36:53;10.90;;;7.75;;
8297;SDS011;4187;42.778;23.242;2024-01-06T12:39:21;9.45;;;8.15;;
8297;SDS011;4187;42.778;23.242;2024-01-06T12:41:50;16.17;;;10.05;;
8297;SDS011;4187;42.778;23.242;2024-01-06T12:44:17;11.80;;;8.43;;
8297;SDS011;4187;42.778;23.242;2024-01-06T12:46:43;12.02;;;7.53;;
8297;SDS011;4187;42.778;23.242;2024-01-06T12:49:10;12.75;;;8.45;;
8297;SDS011;4187;42.778;23.242;2024-01-06T12:51:39;9.10;;;7.18;;
8297;SDS011;4187;42.778;23.242;2024-01-06T12:54:06;10.70;;;7.20;;
8297;SDS011;4187;42.778;23.242;2024-01-06T12:56:33;10.10;;;7.47;;
8297;SDS011;4187;42.778;23.242;2024-01-06T12:59:00;10.73;;;8.15;;
8297;SDS011;4187;42.778;23.242;2024-01-06T13:01:27;9.73;;;6.78;;
8297;SDS011;4187;42.778;23.242;2024-01-06T13:03:54;11.30;;;8.82;;
8297;SDS011;4187;42.778;23.242;2024-01-06T13:06:24;14.70;;;9.25;;
8297;SDS011;4187;42.778;23.242;2024-01-06T13:08:52;12.15;;;7.82;;
8297;SDS011;4187;42.778;23.242;2024-01-06T13:11:19;13.93;;;8.00;;
8297;SDS011;4187;42.778;23.242;2024-01-06T13:13:46;14.85;;;7.05;;
8297;SDS011;4187;42.778;23.242;2024-01-06T13:16:14;11.27;;;7.22;;
8297;SDS011;4187;42.778;23.242;2024-01-06T13:18:41;12.48;;;7.30;;
8297;SDS011;4187;42.778;23.242;2024-01-06T13:21:08;10.00;;;6.80;;
8297;SDS011;4187;42.778;23.242;2024-01-06T13:23:35;11.18;;;7.32;;
8297;SDS011;4187;42.778;23.242;2024-01-06T13:26:03;11.40;;;7.57;;
8297;SDS011;4187;42.778;23.242;2024-01-06T13:28:30;12.20;;;7.53;;
8297;SDS011;4187;42.778;23.242;2024-01-06T13:30:56;12.52;;;7.47;;
8297;SDS011;4187;42.778;23.242;2024-01-06T13:33:23;13.48;;;10.07;;
8297;SDS011;4187;42.778;23.242;2024-01-06T13:35:50;19.95;;;12.60;;
8297;SDS011;4187;42.778;23.242;2024-01-06T13:38:18;22.63;;;13.15;;
8297;SDS011;4187;42.778;23.242;2024-01-06T13:40:47;20.58;;;12.93;;
8297;SDS011;4187;42.778;23.242;2024-01-06T13:43:15;13.68;;;8.70;;
8297;SDS011;4187;42.778;23.242;2024-01-06T13:45:42;13.15;;;8.50;;
8297;SDS011;4187;42.778;23.242;2024-01-06T13:48:09;27.30;;;17.70;;
8297;SDS011;4187;42.778;23.242;2024-01-06T13:50:36;13.32;;;10.75;;
8297;SDS011;4187;42.778;23.242;2024-01-06T13:53:03;10.60;;;7.80;;
8297;SDS011;4187;42.778;23.242;2024-01-06T13:55:31;10.50;;;7.32;;
8297;SDS011;4187;42.778;23.242;2024-01-06T13:57:59;11.20;;;8.20;;
8297;SDS011;4187;42.778;23.242;2024-01-06T14:00:27;12.85;;;8.82;;
8297;SDS011;4187;42.778;23.242;2024-01-06T14:02:55;14.20;;;10.43;;
8297;SDS011;4187;42.778;23.242;2024-01-06T14:05:22;17.02;;;10.80;;
8297;SDS011;4187;42.778;23.242;2024-01-06T14:07:49;17.15;;;15.30;;
8297;SDS011;4187;42.778;23.242;2024-01-06T14:10:16;16.10;;;11.60;;
8297;SDS011;4187;42.778;23.242;2024-01-06T14:12:43;16.65;;;12.02;;
8297;SDS011;4187;42.778;23.242;2024-01-06T14:15:10;18.63;;;14.73;;
8297;SDS011;4187;42.778;23.242;2024-01-06T14:17:38;42.10;;;31.48;;
8297;SDS011;4187;42.778;23.242;2024-01-06T14:20:06;20.60;;;13.48;;
8297;SDS011;4187;42.778;23.242;2024-01-06T14:22:34;20.30;;;15.25;;
8297;SDS011;4187;42.778;23.242;2024-01-06T14:25:01;15.70;;;10.23;;
8297;SDS011;4187;42.778;23.242;2024-01-06T14:27:28;15.05;;;11.27;;
8297;SDS011;4187;42.778;23.242;2024-01-06T14:29:55;12.25;;;10.25;;
8297;SDS011;4187;42.778;23.242;2024-01-06T14:32:22;14.50;;;9.93;;
8297;SDS011;4187;42.778;23.242;2024-01-06T14:34:50;13.70;;;9.85;;
8297;SDS011;4187;42.778;23.242;2024-01-06T14:37:17;11.85;;;8.35;;
8297;SDS011;4187;42.778;23.242;2024-01-06T14:39:44;19.05;;;13.63;;
8297;SDS011;4187;42.778;23.242;2024-01-06T14:42:11;96.03;;;70.07;;
8297;SDS011;4187;42.778;23.242;2024-01-06T14:44:38;62.17;;;44.92;;